KCBF/CBF METAR and TAF weather

Enter ICAO airport designator
Station Type Date Time Source
KCBF METAR 2022/01/18 08:15 UTC NOAA

KCBF 180815Z AUTO 16008KT 10SM CLR M02/M03 A2974 RMK AO2


Station Type Date Time Source
KCBF Decoded METAR 2022/01/18 08:15 UTC NOAA

Council Bluffs, IA, United States (KCBF) 41-16N 095-46W
Jan 18, 2022 - 03:15 AM EST / 2022.01.18 0815 UTC
Wind: from the SSE (160 degrees) at 9 MPH (8 KT):0
Visibility: 10 mile(s):0
Sky conditions: clear
Temperature: 28 F (-2 C)
Windchill: 19 F (-7 C):1
Dew Point: 26 F (-3 C)
Relative Humidity: 92%
Pressure (altimeter): 29.74 in. Hg (1007 hPa)
ob: KCBF 180815Z AUTO 16008KT 10SM CLR M02/M03 A2974 RMK AO2
cycle: 8

Station Type Date Time Source
KCBF TAF UTC NOAA

Error!

Example: see airport list